Armadores I — SY8463 — position and weather

sailwx.info

Track history (hours):
 
Tides and Currents Weather Stations Pressure Air Temp Water Temp Dewpoint Dewpoint Depression Visibility Wind Speed Wind Dir Waves Ship Positions

Armadores I

Last reported at 2017-Jan-16 12:33 UTC. Time now 2017-Jan-16 13:00 UTC.
Position N 38°02' E 023°32'.

Length 32 m.

Type: Tug. MMSI: 240694000.

Date/timePositionNaut miles runAvg speedWind from/ knotsBaromVisibWave heightAir tempDewpointWater temp
2017-Jan-16 12:33N 38°02' E 023°32'0 0.0
2017-Jan-16 11:33N 38°02' E 023°32'0 0.0
2017-Jan-16 10:34N 38°02' E 023°32'0 0.0
2017-Jan-16 09:33N 38°02' E 023°32'1 0.7
2017-Jan-16 08:33N 38°01' E 023°32'5 5.1
2017-Jan-16 07:33N 37°57' E 023°36'1 0.5
2017-Jan-16 06:33N 37°57' E 023°37'0 0.0
2017-Jan-16 05:33N 37°57' E 023°37'0 0.0
2017-Jan-16 04:33N 37°57' E 023°37'0 0.0
2017-Jan-15 16:06N 37°57' E 023°37'0 0.0
2017-Jan-15 15:34N 37°57' E 023°37'0 0.0
2017-Jan-15 14:33N 37°57' E 023°37'0 0.0
2017-Jan-15 13:33N 37°57' E 023°37'0 0.0
2017-Jan-15 12:33N 37°57' E 023°37'0 0.1
2017-Jan-15 11:34N 37°58' E 023°36'0 0.1
2017-Jan-15 10:33N 37°57' E 023°37'0 0.0
2017-Jan-15 09:34N 37°57' E 023°37'0 0.0
2017-Jan-15 08:33N 37°57' E 023°37'0 0.0
2017-Jan-15 07:33N 37°57' E 023°37'2 1.5
2017-Jan-15 06:33N 37°57' E 023°35'1 1.4
2017-Jan-15 05:33N 37°56' E 023°36'1 1.1
2017-Jan-15 04:33N 37°57' E 023°37'1 0.2
2017-Jan-14 19:34N 37°57' E 023°35'1 1.4
2017-Jan-14 18:33N 37°57' E 023°37'0 0.0
2017-Jan-14 17:33N 37°57' E 023°37'0 0.0
2017-Jan-14 16:33N 37°57' E 023°37'0 0.0
2017-Jan-14 15:32N 37°57' E 023°37'0 0.0
2017-Jan-14 14:33N 37°57' E 023°37'1 0.8
2017-Jan-14 13:33N 37°57' E 023°36'1 0.7
2017-Jan-14 12:34N 37°57' E 023°37'0 0.0
2017-Jan-14 11:33N 37°57' E 023°37'1 1.2
2017-Jan-14 10:33N 37°57' E 023°35'1 1.2
2017-Jan-14 09:33N 37°57' E 023°37'0 0.0
2017-Jan-14 08:33N 37°57' E 023°37'1 1.5
2017-Jan-14 07:34N 37°57' E 023°35'1 1.5
2017-Jan-14 06:34N 37°57' E 023°37'0 0.0
2017-Jan-14 05:33N 37°57' E 023°37'0 0.0
2017-Jan-14 04:33N 37°57' E 023°37'0 0.0
2017-Jan-13 13:28N 37°57' E 023°37'0 0.1
2017-Jan-13 12:33N 37°58' E 023°37'1 1.3
2017-Jan-13 11:33N 37°56' E 023°36'1 1.3
2017-Jan-13 10:33N 37°57' E 023°37'0 0.0
2017-Jan-13 09:34N 37°57' E 023°37'0 0.0
2017-Jan-13 08:33N 37°57' E 023°37'0 0.0
2017-Jan-13 07:33N 37°57' E 023°37'0 0.0
2017-Jan-13 06:33N 37°57' E 023°37'1 0.8
2017-Jan-13 05:33N 37°57' E 023°36'1 0.8
2017-Jan-13 04:33N 37°57' E 023°37'0 0.0
2017-Jan-13 03:33N 37°57' E 023°37'0 0.0
2017-Jan-13 02:33N 37°57' E 023°37'0 0.0
2017-Jan-13 01:33N 37°57' E 023°37'0 0.0
2017-Jan-13 00:34N 37°57' E 023°37'3 2.9
2017-Jan-12 23:33N 37°58' E 023°33'6 5.9
2017-Jan-12 22:33N 37°58' E 023°26'2 2.0
2017-Jan-12 21:33N 37°58' E 023°23'1 1.0
2017-Jan-12 20:33N 37°58' E 023°24'0 0.2
2017-Jan-12 19:33N 37°58' E 023°24'0 0.0
2017-Jan-12 18:33N 37°58' E 023°24'0 0.0
2017-Jan-12 17:33N 37°58' E 023°24'0 0.0
2017-Jan-12 16:33N 37°58' E 023°24'0 0.0
2017-Jan-12 15:33N 37°58' E 023°24'1 0.6
2017-Jan-12 14:33N 37°57' E 023°24'1 0.6
2017-Jan-12 13:33N 37°58' E 023°24'0 0.0
2017-Jan-12 12:33N 37°58' E 023°24'0 0.0
2017-Jan-12 11:33N 37°58' E 023°24'0 0.0
2017-Jan-12 10:34N 37°58' E 023°24'0 0.0
2017-Jan-12 09:33N 37°58' E 023°24'0 0.0
2017-Jan-12 08:33N 37°58' E 023°24'0 0.0
2017-Jan-12 07:33N 37°58' E 023°24'0 0.0
2017-Jan-12 06:33N 37°58' E 023°24'0 0.0
2017-Jan-12 05:33N 37°58' E 023°24'0 0.0
2017-Jan-12 04:33N 37°58' E 023°24'0 0.0
2017-Jan-12 03:33N 37°58' E 023°24'0 0.0
2017-Jan-12 02:33N 37°58' E 023°24'0 0.0
2017-Jan-12 01:34N 37°58' E 023°24'0 0.0
2017-Jan-12 00:33N 37°58' E 023°24'0 0.0
2017-Jan-11 23:33N 37°58' E 023°24'0 0.0
2017-Jan-11 22:33N 37°58' E 023°24'0 0.0
2017-Jan-11 21:33N 37°58' E 023°24'0 0.0
2017-Jan-11 20:33N 37°58' E 023°24'0 0.0
2017-Jan-11 19:33N 37°58' E 023°24'0 0.0
2017-Jan-11 18:33N 37°58' E 023°24'0 0.0
2017-Jan-11 17:33N 37°58' E 023°24'0 0.0
2017-Jan-11 16:33N 37°58' E 023°24'0 0.0
2017-Jan-11 15:34N 37°58' E 023°24'0 0.0
2017-Jan-11 14:33N 37°58' E 023°24'0 0.0
2017-Jan-11 13:33N 37°58' E 023°24'0 0.0
2017-Jan-11 12:33N 37°58' E 023°24'0 0.0
2017-Jan-11 11:33N 37°58' E 023°24'0 0.0
2017-Jan-11 10:33N 37°58' E 023°24'0 0.0
2017-Jan-11 09:33N 37°58' E 023°24'1 0.6
2017-Jan-11 08:33N 37°58' E 023°24'0 0.4
2017-Jan-11 07:33N 37°57' E 023°24'1 0.9
2017-Jan-11 06:33N 37°58' E 023°24'2 2.0
2017-Jan-11 05:33N 37°60' E 023°26'7 6.7
2017-Jan-11 04:33N 37°57' E 023°34'2 0.1
2017-Jan-10 11:33N 37°57' E 023°36'1 0.8
2017-Jan-10 10:34N 37°57' E 023°37'1 0.7
2017-Jan-10 09:33N 37°57' E 023°36'1 0.9
2017-Jan-10 08:33N 37°57' E 023°37'0 0.0
2017-Jan-10 07:33N 37°57' E 023°37'0 0.1
2017-Jan-10 06:34N 37°57' E 023°37'1 0.8
2017-Jan-10 05:33N 37°57' E 023°37'0 0.0
2017-Jan-10 04:33N 37°57' E 023°37'0 0.0
2017-Jan-10 03:33N 37°57' E 023°37'1 0.0
2017-Jan-09 12:33N 37°57' E 023°36'0 0.1
2017-Jan-09 11:33N 37°57' E 023°36'0 0.4
2017-Jan-09 10:33N 37°57' E 023°35'1 1.0
2017-Jan-09 09:33N 37°57' E 023°37'5 4.6
2017-Jan-09 08:33N 38°01' E 023°32'2 1.7
2017-Jan-09 07:33N 38°02' E 023°31'6 5.5
2017-Jan-09 06:33N 37°57' E 023°34'1 1.2
2017-Jan-09 05:33N 37°57' E 023°36'1 1.0
2017-Jan-09 04:33N 37°57' E 023°37'0 0.0
2017-Jan-08 14:29N 37°57' E 023°37'1 0.9
2017-Jan-08 13:33N 37°57' E 023°36'0 0.2
2017-Jan-08 12:33N 37°57' E 023°35'8 7.9
2017-Jan-08 11:33N 37°60' E 023°26'3 3.1
2017-Jan-08 10:33N 37°58' E 023°23'7 6.8
2017-Jan-08 09:33N 37°52' E 023°27'9 9.4
2017-Jan-08 08:34N 37°57' E 023°36'1 0.9
2017-Jan-08 07:33N 37°57' E 023°35'1 0.5
2017-Jan-08 06:33N 37°57' E 023°35'1 0.8
2017-Jan-08 05:34N 37°57' E 023°35'1 1.1
2017-Jan-08 04:34N 37°58' E 023°36'  
Track history (hours):
 
Tides and Currents Weather Stations Pressure Air Temp Water Temp Dewpoint Dewpoint Depression Visibility Wind Speed Wind Dir Waves Ship Positions

Armadores I

Last reported at 2017-Jan-16 12:33 UTC. Time now 2017-Jan-16 13:00 UTC.
Position N 38°02' E 023°32'.

Length 32 m.

Type: Tug. MMSI: 240694000.

Date/timePositionNaut miles runAvg speedWind from/ knotsBaromVisibWave heightAir tempDewpointWater temp
2017-Jan-16 12:33N 38°02' E 023°32'0 0.0
2017-Jan-16 11:33N 38°02' E 023°32'0 0.0
2017-Jan-16 10:34N 38°02' E 023°32'0 0.0
2017-Jan-16 09:33N 38°02' E 023°32'1 0.7
2017-Jan-16 08:33N 38°01' E 023°32'5 5.1
2017-Jan-16 07:33N 37°57' E 023°36'1 0.5
2017-Jan-16 06:33N 37°57' E 023°37'0 0.0
2017-Jan-16 05:33N 37°57' E 023°37'0 0.0
2017-Jan-16 04:33N 37°57' E 023°37'0 0.0
2017-Jan-15 16:06N 37°57' E 023°37'0 0.0
2017-Jan-15 15:34N 37°57' E 023°37'0 0.0
2017-Jan-15 14:33N 37°57' E 023°37'0 0.0
2017-Jan-15 13:33N 37°57' E 023°37'0 0.0
2017-Jan-15 12:33N 37°57' E 023°37'0 0.1
2017-Jan-15 11:34N 37°58' E 023°36'0 0.1
2017-Jan-15 10:33N 37°57' E 023°37'0 0.0
2017-Jan-15 09:34N 37°57' E 023°37'0 0.0
2017-Jan-15 08:33N 37°57' E 023°37'0 0.0
2017-Jan-15 07:33N 37°57' E 023°37'2 1.5
2017-Jan-15 06:33N 37°57' E 023°35'1 1.4
2017-Jan-15 05:33N 37°56' E 023°36'1 1.1
2017-Jan-15 04:33N 37°57' E 023°37'1 0.2
2017-Jan-14 19:34N 37°57' E 023°35'1 1.4
2017-Jan-14 18:33N 37°57' E 023°37'0 0.0
2017-Jan-14 17:33N 37°57' E 023°37'0 0.0
2017-Jan-14 16:33N 37°57' E 023°37'0 0.0
2017-Jan-14 15:32N 37°57' E 023°37'0 0.0
2017-Jan-14 14:33N 37°57' E 023°37'1 0.8
2017-Jan-14 13:33N 37°57' E 023°36'1 0.7
2017-Jan-14 12:34N 37°57' E 023°37'0 0.0
2017-Jan-14 11:33N 37°57' E 023°37'1 1.2
2017-Jan-14 10:33N 37°57' E 023°35'1 1.2
2017-Jan-14 09:33N 37°57' E 023°37'0 0.0
2017-Jan-14 08:33N 37°57' E 023°37'1 1.5
2017-Jan-14 07:34N 37°57' E 023°35'1 1.5
2017-Jan-14 06:34N 37°57' E 023°37'0 0.0
2017-Jan-14 05:33N 37°57' E 023°37'0 0.0
2017-Jan-14 04:33N 37°57' E 023°37'0 0.0
2017-Jan-13 13:28N 37°57' E 023°37'0 0.1
2017-Jan-13 12:33N 37°58' E 023°37'1 1.3
2017-Jan-13 11:33N 37°56' E 023°36'1 1.3
2017-Jan-13 10:33N 37°57' E 023°37'0 0.0
2017-Jan-13 09:34N 37°57' E 023°37'0 0.0
2017-Jan-13 08:33N 37°57' E 023°37'0 0.0
2017-Jan-13 07:33N 37°57' E 023°37'0 0.0
2017-Jan-13 06:33N 37°57' E 023°37'1 0.8
2017-Jan-13 05:33N 37°57' E 023°36'1 0.8
2017-Jan-13 04:33N 37°57' E 023°37'0 0.0
2017-Jan-13 03:33N 37°57' E 023°37'0 0.0
2017-Jan-13 02:33N 37°57' E 023°37'0 0.0
2017-Jan-13 01:33N 37°57' E 023°37'0 0.0
2017-Jan-13 00:34N 37°57' E 023°37'3 2.9
2017-Jan-12 23:33N 37°58' E 023°33'6 5.9
2017-Jan-12 22:33N 37°58' E 023°26'2 2.0
2017-Jan-12 21:33N 37°58' E 023°23'1 1.0
2017-Jan-12 20:33N 37°58' E 023°24'0 0.2
2017-Jan-12 19:33N 37°58' E 023°24'0 0.0
2017-Jan-12 18:33N 37°58' E 023°24'0 0.0
2017-Jan-12 17:33N 37°58' E 023°24'0 0.0
2017-Jan-12 16:33N 37°58' E 023°24'0 0.0
2017-Jan-12 15:33N 37°58' E 023°24'1 0.6
2017-Jan-12 14:33N 37°57' E 023°24'1 0.6
2017-Jan-12 13:33N 37°58' E 023°24'0 0.0
2017-Jan-12 12:33N 37°58' E 023°24'0 0.0
2017-Jan-12 11:33N 37°58' E 023°24'0 0.0
2017-Jan-12 10:34N 37°58' E 023°24'0 0.0
2017-Jan-12 09:33N 37°58' E 023°24'0 0.0
2017-Jan-12 08:33N 37°58' E 023°24'0 0.0
2017-Jan-12 07:33N 37°58' E 023°24'0 0.0
2017-Jan-12 06:33N 37°58' E 023°24'0 0.0
2017-Jan-12 05:33N 37°58' E 023°24'0 0.0
2017-Jan-12 04:33N 37°58' E 023°24'0 0.0
2017-Jan-12 03:33N 37°58' E 023°24'0 0.0
2017-Jan-12 02:33N 37°58' E 023°24'0 0.0
2017-Jan-12 01:34N 37°58' E 023°24'0 0.0
2017-Jan-12 00:33N 37°58' E 023°24'0 0.0
2017-Jan-11 23:33N 37°58' E 023°24'0 0.0
2017-Jan-11 22:33N 37°58' E 023°24'0 0.0
2017-Jan-11 21:33N 37°58' E 023°24'0 0.0
2017-Jan-11 20:33N 37°58' E 023°24'0 0.0
2017-Jan-11 19:33N 37°58' E 023°24'0 0.0
2017-Jan-11 18:33N 37°58' E 023°24'0 0.0
2017-Jan-11 17:33N 37°58' E 023°24'0 0.0
2017-Jan-11 16:33N 37°58' E 023°24'0 0.0
2017-Jan-11 15:34N 37°58' E 023°24'0 0.0
2017-Jan-11 14:33N 37°58' E 023°24'0 0.0
2017-Jan-11 13:33N 37°58' E 023°24'0 0.0
2017-Jan-11 12:33N 37°58' E 023°24'0 0.0
2017-Jan-11 11:33N 37°58' E 023°24'0 0.0
2017-Jan-11 10:33N 37°58' E 023°24'0 0.0
2017-Jan-11 09:33N 37°58' E 023°24'1 0.6
2017-Jan-11 08:33N 37°58' E 023°24'0 0.4
2017-Jan-11 07:33N 37°57' E 023°24'1 0.9
2017-Jan-11 06:33N 37°58' E 023°24'2 2.0
2017-Jan-11 05:33N 37°60' E 023°26'7 6.7
2017-Jan-11 04:33N 37°57' E 023°34'2 0.1
2017-Jan-10 11:33N 37°57' E 023°36'1 0.8
2017-Jan-10 10:34N 37°57' E 023°37'1 0.7
2017-Jan-10 09:33N 37°57' E 023°36'1 0.9
2017-Jan-10 08:33N 37°57' E 023°37'0 0.0
2017-Jan-10 07:33N 37°57' E 023°37'0 0.1
2017-Jan-10 06:34N 37°57' E 023°37'1 0.8
2017-Jan-10 05:33N 37°57' E 023°37'0 0.0
2017-Jan-10 04:33N 37°57' E 023°37'0 0.0
2017-Jan-10 03:33N 37°57' E 023°37'1 0.0
2017-Jan-09 12:33N 37°57' E 023°36'0 0.1
2017-Jan-09 11:33N 37°57' E 023°36'0 0.4
2017-Jan-09 10:33N 37°57' E 023°35'1 1.0
2017-Jan-09 09:33N 37°57' E 023°37'5 4.6
2017-Jan-09 08:33N 38°01' E 023°32'2 1.7
2017-Jan-09 07:33N 38°02' E 023°31'6 5.5
2017-Jan-09 06:33N 37°57' E 023°34'1 1.2
2017-Jan-09 05:33N 37°57' E 023°36'1 1.0
2017-Jan-09 04:33N 37°57' E 023°37'0 0.0
2017-Jan-08 14:29N 37°57' E 023°37'1 0.9
2017-Jan-08 13:33N 37°57' E 023°36'0 0.2
2017-Jan-08 12:33N 37°57' E 023°35'8 7.9
2017-Jan-08 11:33N 37°60' E 023°26'3 3.1
2017-Jan-08 10:33N 37°58' E 023°23'7 6.8
2017-Jan-08 09:33N 37°52' E 023°27'9 9.4
2017-Jan-08 08:34N 37°57' E 023°36'1 0.9
2017-Jan-08 07:33N 37°57' E 023°35'1 0.5
2017-Jan-08 06:33N 37°57' E 023°35'1 0.8
2017-Jan-08 05:34N 37°57' E 023°35'1 1.1
2017-Jan-08 04:34N 37°58' E 023°36'  

Dump ship's entire track history